sensor_id;sensor_type;location;lat;lon;timestamp;P1;durP1;ratioP1;P2;durP2;ratioP2
50906;SDS011;36882;27.680;85.304;2022-08-19T00:00:07;4.28;;;1.55;;
50906;SDS011;36882;27.680;85.304;2022-08-19T00:02:39;2.90;;;1.75;;
50906;SDS011;36882;27.680;85.304;2022-08-19T00:05:16;2.85;;;1.10;;
50906;SDS011;36882;27.680;85.304;2022-08-19T00:07:48;3.25;;;1.88;;
50906;SDS011;36882;27.680;85.304;2022-08-19T00:10:19;1.73;;;1.15;;
50906;SDS011;36882;27.680;85.304;2022-08-19T00:12:50;5.15;;;1.48;;
50906;SDS011;36882;27.680;85.304;2022-08-19T00:15:21;3.03;;;1.08;;
50906;SDS011;36882;27.680;85.304;2022-08-19T00:17:52;7.25;;;1.38;;
50906;SDS011;36882;27.680;85.304;2022-08-19T00:20:39;4.65;;;1.88;;
50906;SDS011;36882;27.680;85.304;2022-08-19T00:23:10;4.25;;;1.65;;
50906;SDS011;36882;27.680;85.304;2022-08-19T00:25:41;2.88;;;1.70;;
50906;SDS011;36882;27.680;85.304;2022-08-19T00:28:35;4.88;;;1.52;;
50906;SDS011;36882;27.680;85.304;2022-08-19T00:31:21;4.07;;;1.13;;
50906;SDS011;36882;27.680;85.304;2022-08-19T00:34:09;3.90;;;1.33;;
50906;SDS011;36882;27.680;85.304;2022-08-19T00:36:41;2.75;;;1.50;;
50906;SDS011;36882;27.680;85.304;2022-08-19T00:39:12;4.35;;;1.50;;
50906;SDS011;36882;27.680;85.304;2022-08-19T00:41:45;5.32;;;2.00;;
50906;SDS011;36882;27.680;85.304;2022-08-19T00:44:20;2.17;;;1.40;;
50906;SDS011;36882;27.680;85.304;2022-08-19T00:47:07;2.72;;;2.20;;
50906;SDS011;36882;27.680;85.304;2022-08-19T00:49:48;3.60;;;2.10;;
50906;SDS011;36882;27.680;85.304;2022-08-19T00:52:26;4.72;;;1.67;;
50906;SDS011;36882;27.680;85.304;2022-08-19T00:55:03;6.30;;;2.63;;
50906;SDS011;36882;27.680;85.304;2022-08-19T00:57:40;4.18;;;1.98;;
50906;SDS011;36882;27.680;85.304;2022-08-19T01:00:18;5.50;;;2.30;;
50906;SDS011;36882;27.680;85.304;2022-08-19T01:02:50;5.15;;;2.28;;
50906;SDS011;36882;27.680;85.304;2022-08-19T01:12:36;4.20;;;2.97;;
50906;SDS011;36882;27.680;85.304;2022-08-19T01:15:26;6.53;;;3.50;;
50906;SDS011;36882;27.680;85.304;2022-08-19T01:18:19;6.47;;;3.30;;
50906;SDS011;36882;27.680;85.304;2022-08-19T01:20:50;6.15;;;3.92;;
50906;SDS011;36882;27.680;85.304;2022-08-19T01:23:23;9.88;;;4.20;;
50906;SDS011;36882;27.680;85.304;2022-08-19T01:26:26;6.30;;;3.70;;
50906;SDS011;36882;27.680;85.304;2022-08-19T01:28:58;4.80;;;3.45;;
50906;SDS011;36882;27.680;85.304;2022-08-19T01:31:31;4.72;;;3.88;;
50906;SDS011;36882;27.680;85.304;2022-08-19T01:34:01;6.80;;;3.78;;
50906;SDS011;36882;27.680;85.304;2022-08-19T01:36:36;6.90;;;5.32;;
50906;SDS011;36882;27.680;85.304;2022-08-19T01:39:11;10.55;;;7.00;;
50906;SDS011;36882;27.680;85.304;2022-08-19T01:41:46;7.10;;;5.22;;
50906;SDS011;36882;27.680;85.304;2022-08-19T01:44:32;12.10;;;7.03;;
50906;SDS011;36882;27.680;85.304;2022-08-19T01:47:05;11.18;;;8.43;;
50906;SDS011;36882;27.680;85.304;2022-08-19T01:49:36;16.58;;;7.68;;
50906;SDS011;36882;27.680;85.304;2022-08-19T01:52:06;9.40;;;7.82;;
50906;SDS011;36882;27.680;85.304;2022-08-19T01:54:37;11.57;;;6.32;;
50906;SDS011;36882;27.680;85.304;2022-08-19T01:57:08;14.27;;;6.82;;
50906;SDS011;36882;27.680;85.304;2022-08-19T01:59:41;12.70;;;7.75;;
50906;SDS011;36882;27.680;85.304;2022-08-19T02:02:14;12.63;;;6.38;;
50906;SDS011;36882;27.680;85.304;2022-08-19T02:04:45;10.40;;;6.65;;
50906;SDS011;36882;27.680;85.304;2022-08-19T02:07:18;14.57;;;7.78;;
50906;SDS011;36882;27.680;85.304;2022-08-19T02:09:50;9.80;;;6.72;;
50906;SDS011;36882;27.680;85.304;2022-08-19T02:12:21;9.73;;;6.35;;
50906;SDS011;36882;27.680;85.304;2022-08-19T02:14:52;8.98;;;6.78;;
50906;SDS011;36882;27.680;85.304;2022-08-19T02:17:22;11.85;;;7.82;;
50906;SDS011;36882;27.680;85.304;2022-08-19T02:19:52;14.60;;;7.32;;
50906;SDS011;36882;27.680;85.304;2022-08-19T02:22:23;12.27;;;6.88;;
50906;SDS011;36882;27.680;85.304;2022-08-19T02:24:54;11.77;;;7.63;;
50906;SDS011;36882;27.680;85.304;2022-08-19T02:27:25;8.98;;;6.18;;
50906;SDS011;36882;27.680;85.304;2022-08-19T02:29:56;10.60;;;5.97;;
50906;SDS011;36882;27.680;85.304;2022-08-19T02:32:27;9.07;;;5.00;;
50906;SDS011;36882;27.680;85.304;2022-08-19T02:35:10;11.20;;;5.35;;
50906;SDS011;36882;27.680;85.304;2022-08-19T02:37:41;7.60;;;4.35;;
50906;SDS011;36882;27.680;85.304;2022-08-19T02:40:32;7.68;;;2.97;;
50906;SDS011;36882;27.680;85.304;2022-08-19T02:43:18;7.40;;;3.92;;
50906;SDS011;36882;27.680;85.304;2022-08-19T02:45:50;6.78;;;3.85;;
50906;SDS011;36882;27.680;85.304;2022-08-19T02:48:22;7.60;;;2.88;;
50906;SDS011;36882;27.680;85.304;2022-08-19T02:50:54;6.28;;;4.18;;
50906;SDS011;36882;27.680;85.304;2022-08-19T02:53:26;8.00;;;3.40;;
50906;SDS011;36882;27.680;85.304;2022-08-19T02:55:58;6.03;;;3.08;;
50906;SDS011;36882;27.680;85.304;2022-08-19T02:58:44;4.88;;;2.83;;
50906;SDS011;36882;27.680;85.304;2022-08-19T03:01:23;4.25;;;3.53;;
50906;SDS011;36882;27.680;85.304;2022-08-19T03:03:58;7.32;;;3.70;;
50906;SDS011;36882;27.680;85.304;2022-08-19T03:06:46;10.20;;;6.20;;
50906;SDS011;36882;27.680;85.304;2022-08-19T03:09:18;12.60;;;4.93;;
50906;SDS011;36882;27.680;85.304;2022-08-19T03:11:49;9.88;;;6.63;;
50906;SDS011;36882;27.680;85.304;2022-08-19T03:14:20;11.93;;;6.43;;
50906;SDS011;36882;27.680;85.304;2022-08-19T03:16:51;15.25;;;7.00;;
50906;SDS011;36882;27.680;85.304;2022-08-19T03:19:22;10.50;;;6.82;;
50906;SDS011;36882;27.680;85.304;2022-08-19T03:21:53;15.20;;;6.93;;
50906;SDS011;36882;27.680;85.304;2022-08-19T03:24:24;10.55;;;6.88;;
50906;SDS011;36882;27.680;85.304;2022-08-19T03:26:54;12.57;;;7.07;;
50906;SDS011;36882;27.680;85.304;2022-08-19T03:29:27;16.20;;;7.35;;
50906;SDS011;36882;27.680;85.304;2022-08-19T03:32:09;7.05;;;4.22;;
50906;SDS011;36882;27.680;85.304;2022-08-19T03:34:58;10.57;;;5.38;;
50906;SDS011;36882;27.680;85.304;2022-08-19T03:37:29;13.70;;;6.47;;
50906;SDS011;36882;27.680;85.304;2022-08-19T03:39:59;9.70;;;5.35;;
50906;SDS011;36882;27.680;85.304;2022-08-19T03:42:32;7.18;;;4.03;;
50906;SDS011;36882;27.680;85.304;2022-08-19T03:45:15;7.68;;;6.00;;
50906;SDS011;36882;27.680;85.304;2022-08-19T03:47:46;7.70;;;4.82;;
50906;SDS011;36882;27.680;85.304;2022-08-19T03:50:16;8.55;;;5.20;;
50906;SDS011;36882;27.680;85.304;2022-08-19T03:52:48;6.70;;;4.72;;
50906;SDS011;36882;27.680;85.304;2022-08-19T03:55:41;8.85;;;4.03;;
50906;SDS011;36882;27.680;85.304;2022-08-19T03:58:12;9.68;;;4.72;;
50906;SDS011;36882;27.680;85.304;2022-08-19T04:00:42;8.50;;;4.72;;
50906;SDS011;36882;27.680;85.304;2022-08-19T04:03:13;13.07;;;4.22;;
50906;SDS011;36882;27.680;85.304;2022-08-19T04:05:45;9.20;;;4.10;;
50906;SDS011;36882;27.680;85.304;2022-08-19T04:08:31;5.43;;;3.38;;
50906;SDS011;36882;27.680;85.304;2022-08-19T04:11:18;4.45;;;2.15;;
50906;SDS011;36882;27.680;85.304;2022-08-19T04:14:11;4.28;;;2.30;;
50906;SDS011;36882;27.680;85.304;2022-08-19T04:16:45;7.47;;;2.22;;
50906;SDS011;36882;27.680;85.304;2022-08-19T04:19:34;2.60;;;1.73;;
50906;SDS011;36882;27.680;85.304;2022-08-19T04:22:05;9.23;;;2.42;;
50906;SDS011;36882;27.680;85.304;2022-08-19T04:24:51;7.80;;;2.35;;
50906;SDS011;36882;27.680;85.304;2022-08-19T04:27:23;3.63;;;2.40;;
50906;SDS011;36882;27.680;85.304;2022-08-19T04:29:53;4.57;;;2.05;;
50906;SDS011;36882;27.680;85.304;2022-08-19T04:32:24;7.55;;;2.75;;
50906;SDS011;36882;27.680;85.304;2022-08-19T04:34:54;5.68;;;3.28;;
50906;SDS011;36882;27.680;85.304;2022-08-19T04:37:41;4.93;;;2.45;;
50906;SDS011;36882;27.680;85.304;2022-08-19T04:40:11;7.50;;;3.30;;
50906;SDS011;36882;27.680;85.304;2022-08-19T04:42:55;7.68;;;3.40;;
50906;SDS011;36882;27.680;85.304;2022-08-19T04:45:25;6.60;;;3.60;;
50906;SDS011;36882;27.680;85.304;2022-08-19T04:48:09;5.10;;;3.30;;
50906;SDS011;36882;27.680;85.304;2022-08-19T04:50:53;6.70;;;3.08;;
50906;SDS011;36882;27.680;85.304;2022-08-19T04:53:27;4.03;;;3.30;;
50906;SDS011;36882;27.680;85.304;2022-08-19T04:56:07;12.43;;;3.20;;
50906;SDS011;36882;27.680;85.304;2022-08-19T04:58:42;4.25;;;3.42;;
50906;SDS011;36882;27.680;85.304;2022-08-19T05:01:15;7.85;;;4.03;;
50906;SDS011;36882;27.680;85.304;2022-08-19T05:03:49;8.20;;;3.47;;
50906;SDS011;36882;27.680;85.304;2022-08-19T05:06:21;9.07;;;3.30;;
50906;SDS011;36882;27.680;85.304;2022-08-19T05:08:52;4.65;;;3.60;;
50906;SDS011;36882;27.680;85.304;2022-08-19T05:11:38;6.97;;;3.58;;
50906;SDS011;36882;27.680;85.304;2022-08-19T05:14:10;8.82;;;3.30;;
50906;SDS011;36882;27.680;85.304;2022-08-19T05:16:56;11.23;;;4.05;;
50906;SDS011;36882;27.680;85.304;2022-08-19T05:19:47;8.57;;;4.13;;
50906;SDS011;36882;27.680;85.304;2022-08-19T05:22:29;8.43;;;4.72;;
50906;SDS011;36882;27.680;85.304;2022-08-19T05:25:06;7.30;;;4.43;;
50906;SDS011;36882;27.680;85.304;2022-08-19T05:27:41;8.77;;;5.13;;
50906;SDS011;36882;27.680;85.304;2022-08-19T05:30:12;6.05;;;4.32;;
50906;SDS011;36882;27.680;85.304;2022-08-19T05:32:58;8.82;;;5.10;;
50906;SDS011;36882;27.680;85.304;2022-08-19T05:35:30;7.35;;;5.57;;
50906;SDS011;36882;27.680;85.304;2022-08-19T05:38:00;8.85;;;5.53;;
50906;SDS011;36882;27.680;85.304;2022-08-19T05:40:31;7.82;;;4.63;;
50906;SDS011;36882;27.680;85.304;2022-08-19T05:43:06;18.85;;;6.10;;
50906;SDS011;36882;27.680;85.304;2022-08-19T05:45:53;6.97;;;5.65;;
50906;SDS011;36882;27.680;85.304;2022-08-19T05:48:39;9.00;;;4.68;;
50906;SDS011;36882;27.680;85.304;2022-08-19T05:51:09;9.23;;;5.05;;
50906;SDS011;36882;27.680;85.304;2022-08-19T05:53:43;9.98;;;4.70;;
50906;SDS011;36882;27.680;85.304;2022-08-19T05:56:30;6.43;;;5.53;;
50906;SDS011;36882;27.680;85.304;2022-08-19T05:59:01;6.97;;;4.53;;
50906;SDS011;36882;27.680;85.304;2022-08-19T06:01:33;6.47;;;4.35;;
50906;SDS011;36882;27.680;85.304;2022-08-19T06:04:04;11.30;;;5.93;;
50906;SDS011;36882;27.680;85.304;2022-08-19T06:06:35;8.20;;;4.78;;
50906;SDS011;36882;27.680;85.304;2022-08-19T06:09:06;12.52;;;4.65;;
50906;SDS011;36882;27.680;85.304;2022-08-19T06:11:42;7.30;;;4.88;;
50906;SDS011;36882;27.680;85.304;2022-08-19T06:14:31;5.30;;;4.75;;
50906;SDS011;36882;27.680;85.304;2022-08-19T06:17:18;6.78;;;4.95;;
50906;SDS011;36882;27.680;85.304;2022-08-19T06:23:18;8.33;;;5.00;;
50906;SDS011;36882;27.680;85.304;2022-08-19T06:25:50;5.65;;;4.57;;
50906;SDS011;36882;27.680;85.304;2022-08-19T06:28:21;6.68;;;4.75;;
50906;SDS011;36882;27.680;85.304;2022-08-19T06:30:51;8.88;;;5.25;;
50906;SDS011;36882;27.680;85.304;2022-08-19T06:33:22;5.05;;;4.55;;
50906;SDS011;36882;27.680;85.304;2022-08-19T06:35:53;16.42;;;5.55;;
50906;SDS011;36882;27.680;85.304;2022-08-19T06:38:24;4.60;;;4.13;;
50906;SDS011;36882;27.680;85.304;2022-08-19T06:41:02;6.85;;;4.70;;
50906;SDS011;36882;27.680;85.304;2022-08-19T06:43:34;6.50;;;4.38;;
50906;SDS011;36882;27.680;85.304;2022-08-19T06:46:10;8.77;;;4.22;;
50906;SDS011;36882;27.680;85.304;2022-08-19T06:48:43;6.43;;;5.50;;
50906;SDS011;36882;27.680;85.304;2022-08-19T06:51:29;7.53;;;5.00;;
50906;SDS011;36882;27.680;85.304;2022-08-19T06:54:08;6.35;;;4.80;;
50906;SDS011;36882;27.680;85.304;2022-08-19T06:56:45;6.93;;;4.15;;
50906;SDS011;36882;27.680;85.304;2022-08-19T06:59:17;5.45;;;4.35;;
50906;SDS011;36882;27.680;85.304;2022-08-19T07:01:50;6.97;;;4.60;;
50906;SDS011;36882;27.680;85.304;2022-08-19T07:04:38;7.72;;;4.85;;
50906;SDS011;36882;27.680;85.304;2022-08-19T07:07:24;6.20;;;5.25;;
50906;SDS011;36882;27.680;85.304;2022-08-19T07:09:54;8.05;;;5.30;;
50906;SDS011;36882;27.680;85.304;2022-08-19T07:12:30;5.90;;;5.03;;
50906;SDS011;36882;27.680;85.304;2022-08-19T07:15:04;6.20;;;4.22;;
50906;SDS011;36882;27.680;85.304;2022-08-19T07:17:37;8.02;;;5.20;;
50906;SDS011;36882;27.680;85.304;2022-08-19T07:20:10;7.05;;;4.70;;
50906;SDS011;36882;27.680;85.304;2022-08-19T07:22:44;5.80;;;5.07;;
50906;SDS011;36882;27.680;85.304;2022-08-19T07:25:14;5.95;;;5.03;;
50906;SDS011;36882;27.680;85.304;2022-08-19T07:28:02;6.15;;;4.45;;
50906;SDS011;36882;27.680;85.304;2022-08-19T07:30:48;6.40;;;5.03;;
50906;SDS011;36882;27.680;85.304;2022-08-19T07:33:19;7.40;;;5.80;;
50906;SDS011;36882;27.680;85.304;2022-08-19T07:35:53;9.20;;;5.32;;
50906;SDS011;36882;27.680;85.304;2022-08-19T07:38:24;7.68;;;5.75;;
50906;SDS011;36882;27.680;85.304;2022-08-19T07:40:55;8.57;;;5.55;;
50906;SDS011;36882;27.680;85.304;2022-08-19T07:43:25;8.40;;;6.00;;
50906;SDS011;36882;27.680;85.304;2022-08-19T07:46:00;6.35;;;5.65;;
50906;SDS011;36882;27.680;85.304;2022-08-19T07:48:31;5.57;;;5.03;;
50906;SDS011;36882;27.680;85.304;2022-08-19T07:51:03;6.57;;;4.95;;
50906;SDS011;36882;27.680;85.304;2022-08-19T07:53:40;8.18;;;5.20;;
50906;SDS011;36882;27.680;85.304;2022-08-19T07:56:27;9.60;;;5.97;;
50906;SDS011;36882;27.680;85.304;2022-08-19T07:58:58;9.30;;;5.32;;
50906;SDS011;36882;27.680;85.304;2022-08-19T08:01:29;5.63;;;5.10;;
50906;SDS011;36882;27.680;85.304;2022-08-19T08:04:07;6.45;;;5.82;;
50906;SDS011;36882;27.680;85.304;2022-08-19T08:06:57;8.40;;;5.97;;
50906;SDS011;36882;27.680;85.304;2022-08-19T08:09:49;8.73;;;6.85;;
50906;SDS011;36882;27.680;85.304;2022-08-19T08:12:22;13.23;;;5.88;;
50906;SDS011;36882;27.680;85.304;2022-08-19T08:15:04;9.15;;;5.63;;
50906;SDS011;36882;27.680;85.304;2022-08-19T08:17:42;9.35;;;6.60;;
50906;SDS011;36882;27.680;85.304;2022-08-19T08:20:17;10.05;;;6.63;;
50906;SDS011;36882;27.680;85.304;2022-08-19T08:22:48;10.32;;;6.22;;
50906;SDS011;36882;27.680;85.304;2022-08-19T08:25:29;12.30;;;6.50;;
50906;SDS011;36882;27.680;85.304;2022-08-19T08:28:16;8.60;;;6.32;;
50906;SDS011;36882;27.680;85.304;2022-08-19T08:30:47;9.20;;;5.95;;
50906;SDS011;36882;27.680;85.304;2022-08-19T08:33:21;13.32;;;6.20;;
50906;SDS011;36882;27.680;85.304;2022-08-19T08:36:02;10.15;;;5.80;;
50906;SDS011;36882;27.680;85.304;2022-08-19T08:38:34;9.60;;;6.35;;
50906;SDS011;36882;27.680;85.304;2022-08-19T08:41:40;6.65;;;5.18;;
50906;SDS011;36882;27.680;85.304;2022-08-19T08:44:03;7.60;;;6.53;;
50906;SDS011;36882;27.680;85.304;2022-08-19T08:46:44;7.22;;;5.53;;
50906;SDS011;36882;27.680;85.304;2022-08-19T08:49:24;8.18;;;5.47;;
50906;SDS011;36882;27.680;85.304;2022-08-19T08:52:04;8.68;;;6.88;;
50906;SDS011;36882;27.680;85.304;2022-08-19T08:54:42;6.85;;;5.72;;
50906;SDS011;36882;27.680;85.304;2022-08-19T08:57:24;6.35;;;5.75;;
50906;SDS011;36882;27.680;85.304;2022-08-19T09:00:32;6.97;;;5.63;;
50906;SDS011;36882;27.680;85.304;2022-08-19T09:03:25;8.38;;;5.65;;
50906;SDS011;36882;27.680;85.304;2022-08-19T09:06:07;7.10;;;5.60;;
50906;SDS011;36882;27.680;85.304;2022-08-19T09:08:48;5.72;;;5.07;;
50906;SDS011;36882;27.680;85.304;2022-08-19T09:14:33;9.00;;;5.15;;
50906;SDS011;36882;27.680;85.304;2022-08-19T09:17:28;11.27;;;7.40;;
50906;SDS011;36882;27.680;85.304;2022-08-19T09:20:05;9.40;;;4.82;;
50906;SDS011;36882;27.680;85.304;2022-08-19T09:22:54;7.75;;;5.50;;
50906;SDS011;36882;27.680;85.304;2022-08-19T09:25:25;9.63;;;7.18;;
50906;SDS011;36882;27.680;85.304;2022-08-19T09:28:11;11.65;;;5.70;;
50906;SDS011;36882;27.680;85.304;2022-08-19T09:30:51;10.52;;;5.78;;
50906;SDS011;36882;27.680;85.304;2022-08-19T09:33:21;10.25;;;6.55;;
50906;SDS011;36882;27.680;85.304;2022-08-19T09:36:01;10.13;;;6.70;;
50906;SDS011;36882;27.680;85.304;2022-08-19T09:38:35;7.35;;;5.63;;
50906;SDS011;36882;27.680;85.304;2022-08-19T09:41:11;9.85;;;6.65;;
50906;SDS011;36882;27.680;85.304;2022-08-19T09:43:44;13.45;;;6.60;;
50906;SDS011;36882;27.680;85.304;2022-08-19T09:46:19;15.77;;;6.95;;
50906;SDS011;36882;27.680;85.304;2022-08-19T09:48:51;9.98;;;6.30;;
50906;SDS011;36882;27.680;85.304;2022-08-19T09:51:23;14.52;;;6.53;;
50906;SDS011;36882;27.680;85.304;2022-08-19T09:53:59;7.95;;;5.55;;
50906;SDS011;36882;27.680;85.304;2022-08-19T09:56:32;9.95;;;6.32;;
50906;SDS011;36882;27.680;85.304;2022-08-19T09:59:03;12.68;;;7.40;;
50906;SDS011;36882;27.680;85.304;2022-08-19T10:01:33;12.20;;;8.10;;
50906;SDS011;36882;27.680;85.304;2022-08-19T10:04:19;10.98;;;6.00;;
50906;SDS011;36882;27.680;85.304;2022-08-19T10:07:06;16.92;;;10.88;;
50906;SDS011;36882;27.680;85.304;2022-08-19T10:09:52;10.95;;;8.88;;
50906;SDS011;36882;27.680;85.304;2022-08-19T10:12:23;14.30;;;7.20;;
50906;SDS011;36882;27.680;85.304;2022-08-19T10:14:53;7.60;;;6.22;;
50906;SDS011;36882;27.680;85.304;2022-08-19T10:17:24;10.70;;;7.32;;
50906;SDS011;36882;27.680;85.304;2022-08-19T10:19:59;11.07;;;6.25;;
50906;SDS011;36882;27.680;85.304;2022-08-19T10:22:31;8.80;;;6.72;;
50906;SDS011;36882;27.680;85.304;2022-08-19T10:25:05;11.43;;;6.38;;
50906;SDS011;36882;27.680;85.304;2022-08-19T10:27:55;11.35;;;6.30;;
50906;SDS011;36882;27.680;85.304;2022-08-19T10:30:26;8.18;;;5.53;;
50906;SDS011;36882;27.680;85.304;2022-08-19T10:32:57;19.98;;;6.50;;
50906;SDS011;36882;27.680;85.304;2022-08-19T10:35:36;9.40;;;4.90;;
50906;SDS011;36882;27.680;85.304;2022-08-19T10:38:22;10.07;;;5.80;;
50906;SDS011;36882;27.680;85.304;2022-08-19T10:41:05;5.55;;;3.67;;
50906;SDS011;36882;27.680;85.304;2022-08-19T10:43:42;7.35;;;3.22;;
50906;SDS011;36882;27.680;85.304;2022-08-19T10:46:14;5.28;;;2.90;;
50906;SDS011;36882;27.680;85.304;2022-08-19T10:49:01;3.20;;;1.88;;
50906;SDS011;36882;27.680;85.304;2022-08-19T10:51:33;4.07;;;2.83;;
50906;SDS011;36882;27.680;85.304;2022-08-19T10:54:15;3.72;;;2.40;;
50906;SDS011;36882;27.680;85.304;2022-08-19T10:56:58;7.80;;;2.60;;
50906;SDS011;36882;27.680;85.304;2022-08-19T10:59:45;10.55;;;4.30;;
50906;SDS011;36882;27.680;85.304;2022-08-19T11:02:16;11.15;;;4.13;;
50906;SDS011;36882;27.680;85.304;2022-08-19T11:04:46;5.53;;;3.13;;
50906;SDS011;36882;27.680;85.304;2022-08-19T11:07:19;9.90;;;4.22;;
50906;SDS011;36882;27.680;85.304;2022-08-19T11:10:05;10.65;;;6.22;;
50906;SDS011;36882;27.680;85.304;2022-08-19T11:12:39;8.82;;;4.35;;
50906;SDS011;36882;27.680;85.304;2022-08-19T11:15:10;9.45;;;5.18;;
50906;SDS011;36882;27.680;85.304;2022-08-19T11:17:43;8.30;;;4.57;;
50906;SDS011;36882;27.680;85.304;2022-08-19T11:20:29;13.00;;;6.05;;
50906;SDS011;36882;27.680;85.304;2022-08-19T11:23:01;15.07;;;4.95;;
50906;SDS011;36882;27.680;85.304;2022-08-19T11:25:46;10.48;;;5.13;;
50906;SDS011;36882;27.680;85.304;2022-08-19T11:28:18;7.35;;;5.15;;
50906;SDS011;36882;27.680;85.304;2022-08-19T11:30:48;11.05;;;6.50;;
50906;SDS011;36882;27.680;85.304;2022-08-19T11:33:19;11.25;;;5.03;;
50906;SDS011;36882;27.680;85.304;2022-08-19T11:36:05;5.13;;;4.30;;
50906;SDS011;36882;27.680;85.304;2022-08-19T11:38:40;5.57;;;4.50;;
50906;SDS011;36882;27.680;85.304;2022-08-19T11:41:11;11.15;;;7.25;;
50906;SDS011;36882;27.680;85.304;2022-08-19T11:43:41;8.23;;;6.43;;
50906;SDS011;36882;27.680;85.304;2022-08-19T11:46:12;9.48;;;5.75;;
50906;SDS011;36882;27.680;85.304;2022-08-19T11:48:44;13.25;;;4.95;;
50906;SDS011;36882;27.680;85.304;2022-08-19T11:51:16;14.25;;;6.45;;
50906;SDS011;36882;27.680;85.304;2022-08-19T11:53:49;10.32;;;5.72;;
50906;SDS011;36882;27.680;85.304;2022-08-19T11:56:20;10.90;;;5.13;;
50906;SDS011;36882;27.680;85.304;2022-08-19T11:59:08;10.10;;;5.85;;
50906;SDS011;36882;27.680;85.304;2022-08-19T12:01:40;11.30;;;6.28;;
50906;SDS011;36882;27.680;85.304;2022-08-19T12:04:12;8.48;;;5.00;;
50906;SDS011;36882;27.680;85.304;2022-08-19T12:06:44;6.55;;;5.28;;
50906;SDS011;36882;27.680;85.304;2022-08-19T12:09:14;9.43;;;5.65;;
50906;SDS011;36882;27.680;85.304;2022-08-19T12:12:01;10.85;;;5.88;;
50906;SDS011;36882;27.680;85.304;2022-08-19T12:14:47;7.72;;;5.50;;
50906;SDS011;36882;27.680;85.304;2022-08-19T12:17:19;7.43;;;5.25;;
50906;SDS011;36882;27.680;85.304;2022-08-19T12:19:50;9.55;;;6.45;;
50906;SDS011;36882;27.680;85.304;2022-08-19T12:22:20;11.02;;;7.00;;
50906;SDS011;36882;27.680;85.304;2022-08-19T12:24:51;12.07;;;5.22;;
50906;SDS011;36882;27.680;85.304;2022-08-19T12:27:22;14.88;;;6.60;;
50906;SDS011;36882;27.680;85.304;2022-08-19T12:30:07;10.18;;;5.50;;
50906;SDS011;36882;27.680;85.304;2022-08-19T12:32:57;12.93;;;6.90;;
50906;SDS011;36882;27.680;85.304;2022-08-19T12:35:27;9.63;;;5.63;;
50906;SDS011;36882;27.680;85.304;2022-08-19T12:37:59;9.93;;;6.22;;
50906;SDS011;36882;27.680;85.304;2022-08-19T12:40:31;10.93;;;5.63;;
50906;SDS011;36882;27.680;85.304;2022-08-19T12:43:01;15.73;;;6.55;;
50906;SDS011;36882;27.680;85.304;2022-08-19T12:45:33;16.40;;;8.05;;
50906;SDS011;36882;27.680;85.304;2022-08-19T12:48:19;13.18;;;9.10;;
50906;SDS011;36882;27.680;85.304;2022-08-19T12:51:00;12.38;;;8.82;;
50906;SDS011;36882;27.680;85.304;2022-08-19T12:53:36;11.43;;;8.07;;
50906;SDS011;36882;27.680;85.304;2022-08-19T12:56:07;11.15;;;6.95;;
50906;SDS011;36882;27.680;85.304;2022-08-19T12:58:55;12.55;;;7.20;;
50906;SDS011;36882;27.680;85.304;2022-08-19T13:01:26;14.70;;;9.70;;
50906;SDS011;36882;27.680;85.304;2022-08-19T13:03:59;22.65;;;12.20;;
50906;SDS011;36882;27.680;85.304;2022-08-19T13:06:30;23.42;;;10.45;;
50906;SDS011;36882;27.680;85.304;2022-08-19T13:09:01;21.67;;;12.20;;
50906;SDS011;36882;27.680;85.304;2022-08-19T13:11:33;25.83;;;10.45;;
50906;SDS011;36882;27.680;85.304;2022-08-19T13:14:04;20.42;;;9.77;;
50906;SDS011;36882;27.680;85.304;2022-08-19T13:16:35;20.15;;;10.05;;
50906;SDS011;36882;27.680;85.304;2022-08-19T13:19:06;20.05;;;11.00;;
50906;SDS011;36882;27.680;85.304;2022-08-19T13:21:37;14.90;;;9.07;;
50906;SDS011;36882;27.680;85.304;2022-08-19T13:24:08;23.73;;;12.32;;
50906;SDS011;36882;27.680;85.304;2022-08-19T13:26:38;17.42;;;9.80;;
50906;SDS011;36882;27.680;85.304;2022-08-19T13:29:24;15.55;;;8.25;;
50906;SDS011;36882;27.680;85.304;2022-08-19T13:32:11;18.08;;;9.20;;
50906;SDS011;36882;27.680;85.304;2022-08-19T13:34:52;20.80;;;12.73;;
50906;SDS011;36882;27.680;85.304;2022-08-19T13:37:22;14.15;;;10.40;;
50906;SDS011;36882;27.680;85.304;2022-08-19T13:40:15;17.50;;;8.68;;
50906;SDS011;36882;27.680;85.304;2022-08-19T13:42:49;18.52;;;10.88;;
50906;SDS011;36882;27.680;85.304;2022-08-19T13:45:23;17.48;;;9.88;;
50906;SDS011;36882;27.680;85.304;2022-08-19T13:47:55;22.10;;;11.05;;
50906;SDS011;36882;27.680;85.304;2022-08-19T13:50:28;23.08;;;11.98;;
50906;SDS011;36882;27.680;85.304;2022-08-19T13:53:00;22.55;;;12.73;;
50906;SDS011;36882;27.680;85.304;2022-08-19T13:55:32;19.58;;;12.68;;
50906;SDS011;36882;27.680;85.304;2022-08-19T13:58:04;17.67;;;9.48;;
50906;SDS011;36882;27.680;85.304;2022-08-19T14:00:36;17.88;;;11.07;;
50906;SDS011;36882;27.680;85.304;2022-08-19T14:03:09;18.92;;;10.90;;
50906;SDS011;36882;27.680;85.304;2022-08-19T14:05:40;18.65;;;11.80;;
50906;SDS011;36882;27.680;85.304;2022-08-19T14:08:26;16.58;;;10.57;;
50906;SDS011;36882;27.680;85.304;2022-08-19T14:10:59;23.80;;;16.85;;
50906;SDS011;36882;27.680;85.304;2022-08-19T14:13:33;28.55;;;15.48;;
50906;SDS011;36882;27.680;85.304;2022-08-19T14:16:08;26.10;;;15.13;;
50906;SDS011;36882;27.680;85.304;2022-08-19T14:18:41;23.95;;;12.52;;
50906;SDS011;36882;27.680;85.304;2022-08-19T14:21:16;32.17;;;14.40;;
50906;SDS011;36882;27.680;85.304;2022-08-19T14:23:51;21.98;;;14.85;;
50906;SDS011;36882;27.680;85.304;2022-08-19T14:26:22;23.15;;;12.85;;
50906;SDS011;36882;27.680;85.304;2022-08-19T14:28:53;19.02;;;12.07;;
50906;SDS011;36882;27.680;85.304;2022-08-19T14:31:26;23.38;;;14.95;;
50906;SDS011;36882;27.680;85.304;2022-08-19T14:33:56;24.10;;;13.13;;
50906;SDS011;36882;27.680;85.304;2022-08-19T14:36:28;22.83;;;13.07;;
50906;SDS011;36882;27.680;85.304;2022-08-19T14:39:16;21.17;;;12.18;;
50906;SDS011;36882;27.680;85.304;2022-08-19T14:41:46;15.40;;;10.27;;
50906;SDS011;36882;27.680;85.304;2022-08-19T14:44:17;14.38;;;8.45;;
50906;SDS011;36882;27.680;85.304;2022-08-19T14:46:48;11.65;;;7.85;;
50906;SDS011;36882;27.680;85.304;2022-08-19T14:49:20;15.43;;;8.35;;
50906;SDS011;36882;27.680;85.304;2022-08-19T14:52:01;13.82;;;7.43;;
50906;SDS011;36882;27.680;85.304;2022-08-19T14:54:33;15.30;;;6.78;;
50906;SDS011;36882;27.680;85.304;2022-08-19T14:57:03;11.38;;;7.38;;
50906;SDS011;36882;27.680;85.304;2022-08-19T14:59:34;14.90;;;7.95;;
50906;SDS011;36882;27.680;85.304;2022-08-19T15:02:05;14.23;;;7.60;;
50906;SDS011;36882;27.680;85.304;2022-08-19T15:04:56;10.73;;;6.38;;
50906;SDS011;36882;27.680;85.304;2022-08-19T15:07:27;14.15;;;7.40;;
50906;SDS011;36882;27.680;85.304;2022-08-19T15:09:58;11.55;;;7.72;;
50906;SDS011;36882;27.680;85.304;2022-08-19T15:12:44;13.60;;;7.07;;
50906;SDS011;36882;27.680;85.304;2022-08-19T15:15:17;8.82;;;7.93;;
50906;SDS011;36882;27.680;85.304;2022-08-19T15:18:04;10.13;;;7.38;;
50906;SDS011;36882;27.680;85.304;2022-08-19T15:20:34;13.55;;;6.70;;
50906;SDS011;36882;27.680;85.304;2022-08-19T15:23:20;11.63;;;7.60;;
50906;SDS011;36882;27.680;85.304;2022-08-19T15:26:06;10.30;;;8.38;;
50906;SDS011;36882;27.680;85.304;2022-08-19T15:28:42;15.60;;;8.18;;
50906;SDS011;36882;27.680;85.304;2022-08-19T15:31:13;11.18;;;6.93;;
50906;SDS011;36882;27.680;85.304;2022-08-19T15:33:55;18.00;;;8.77;;